sensor_id;sensor_type;location;lat;lon;timestamp;P1;durP1;ratioP1;P2;durP2;ratioP2
2055;SDS011;1033;52.560;13.374;2023-04-29T00:01:55;10.47;;;9.10;;
2055;SDS011;1033;52.560;13.374;2023-04-29T00:04:25;9.70;;;8.77;;
2055;SDS011;1033;52.560;13.374;2023-04-29T00:06:55;10.43;;;9.43;;
2055;SDS011;1033;52.560;13.374;2023-04-29T00:09:24;9.20;;;8.40;;
2055;SDS011;1033;52.560;13.374;2023-04-29T00:11:53;13.97;;;8.40;;
2055;SDS011;1033;52.560;13.374;2023-04-29T00:14:24;11.70;;;9.40;;
2055;SDS011;1033;52.560;13.374;2023-04-29T00:16:53;10.40;;;9.10;;
2055;SDS011;1033;52.560;13.374;2023-04-29T00:19:23;10.93;;;9.30;;
2055;SDS011;1033;52.560;13.374;2023-04-29T00:21:52;9.47;;;8.67;;
2055;SDS011;1033;52.560;13.374;2023-04-29T00:24:21;9.10;;;8.10;;
2055;SDS011;1033;52.560;13.374;2023-04-29T00:26:50;14.63;;;9.50;;
2055;SDS011;1033;52.560;13.374;2023-04-29T00:29:20;9.40;;;8.40;;
2055;SDS011;1033;52.560;13.374;2023-04-29T00:31:51;10.43;;;9.40;;
2055;SDS011;1033;52.560;13.374;2023-04-29T00:34:20;14.47;;;10.77;;
2055;SDS011;1033;52.560;13.374;2023-04-29T00:36:49;10.50;;;9.10;;
2055;SDS011;1033;52.560;13.374;2023-04-29T00:39:19;11.30;;;8.73;;
2055;SDS011;1033;52.560;13.374;2023-04-29T00:41:48;10.00;;;9.00;;
2055;SDS011;1033;52.560;13.374;2023-04-29T00:44:17;11.23;;;8.27;;
2055;SDS011;1033;52.560;13.374;2023-04-29T00:46:47;9.37;;;8.03;;
2055;SDS011;1033;52.560;13.374;2023-04-29T00:49:17;9.60;;;8.60;;
2055;SDS011;1033;52.560;13.374;2023-04-29T00:51:47;9.13;;;8.23;;
2055;SDS011;1033;52.560;13.374;2023-04-29T00:54:16;12.50;;;10.30;;
2055;SDS011;1033;52.560;13.374;2023-04-29T00:56:45;11.23;;;8.00;;
2055;SDS011;1033;52.560;13.374;2023-04-29T00:59:16;11.63;;;9.07;;
2055;SDS011;1033;52.560;13.374;2023-04-29T01:01:45;10.80;;;9.77;;
2055;SDS011;1033;52.560;13.374;2023-04-29T01:04:18;10.53;;;9.33;;
2055;SDS011;1033;52.560;13.374;2023-04-29T01:06:51;10.80;;;9.40;;
2055;SDS011;1033;52.560;13.374;2023-04-29T01:09:28;14.47;;;10.80;;
2055;SDS011;1033;52.560;13.374;2023-04-29T01:12:10;15.50;;;9.13;;
2055;SDS011;1033;52.560;13.374;2023-04-29T01:14:52;10.03;;;9.00;;
2055;SDS011;1033;52.560;13.374;2023-04-29T01:17:34;12.17;;;9.87;;
2055;SDS011;1033;52.560;13.374;2023-04-29T01:20:09;14.73;;;10.27;;
2055;SDS011;1033;52.560;13.374;2023-04-29T01:22:38;15.57;;;11.53;;
2055;SDS011;1033;52.560;13.374;2023-04-29T01:25:10;12.07;;;10.97;;
2055;SDS011;1033;52.560;13.374;2023-04-29T01:28:01;12.50;;;10.37;;
2055;SDS011;1033;52.560;13.374;2023-04-29T01:30:45;15.40;;;11.17;;
2055;SDS011;1033;52.560;13.374;2023-04-29T01:33:27;15.43;;;11.30;;
2055;SDS011;1033;52.560;13.374;2023-04-29T01:36:07;14.00;;;12.50;;
2055;SDS011;1033;52.560;13.374;2023-04-29T01:38:46;14.37;;;11.53;;
2055;SDS011;1033;52.560;13.374;2023-04-29T01:41:41;12.50;;;11.30;;
2055;SDS011;1033;52.560;13.374;2023-04-29T01:44:18;17.07;;;11.80;;
2055;SDS011;1033;52.560;13.374;2023-04-29T01:46:52;15.93;;;12.20;;
2055;SDS011;1033;52.560;13.374;2023-04-29T01:49:34;15.57;;;12.03;;
2055;SDS011;1033;52.560;13.374;2023-04-29T01:52:04;12.00;;;10.70;;
2055;SDS011;1033;52.560;13.374;2023-04-29T01:54:35;14.10;;;12.20;;
2055;SDS011;1033;52.560;13.374;2023-04-29T01:57:05;16.97;;;12.97;;
2055;SDS011;1033;52.560;13.374;2023-04-29T02:00:00;16.80;;;12.53;;
2055;SDS011;1033;52.560;13.374;2023-04-29T02:02:41;18.47;;;13.03;;
2055;SDS011;1033;52.560;13.374;2023-04-29T02:05:23;15.40;;;13.60;;
2055;SDS011;1033;52.560;13.374;2023-04-29T02:07:55;16.93;;;12.43;;
2055;SDS011;1033;52.560;13.374;2023-04-29T02:10:24;14.60;;;12.00;;
2055;SDS011;1033;52.560;13.374;2023-04-29T02:13:08;17.10;;;15.23;;
2055;SDS011;1033;52.560;13.374;2023-04-29T02:15:40;21.50;;;13.70;;
2055;SDS011;1033;52.560;13.374;2023-04-29T02:18:09;15.67;;;14.07;;
2055;SDS011;1033;52.560;13.374;2023-04-29T02:20:39;18.23;;;15.07;;
2055;SDS011;1033;52.560;13.374;2023-04-29T02:23:08;16.07;;;14.37;;
2055;SDS011;1033;52.560;13.374;2023-04-29T02:25:38;14.47;;;12.97;;
2055;SDS011;1033;52.560;13.374;2023-04-29T02:28:08;14.47;;;12.70;;
2055;SDS011;1033;52.560;13.374;2023-04-29T02:30:39;17.47;;;13.80;;
2055;SDS011;1033;52.560;13.374;2023-04-29T02:33:08;15.70;;;12.63;;
2055;SDS011;1033;52.560;13.374;2023-04-29T02:35:37;16.20;;;13.10;;
2055;SDS011;1033;52.560;13.374;2023-04-29T02:38:06;20.93;;;15.77;;
2055;SDS011;1033;52.560;13.374;2023-04-29T02:40:39;17.20;;;15.40;;
2055;SDS011;1033;52.560;13.374;2023-04-29T02:43:11;19.53;;;16.30;;
2055;SDS011;1033;52.560;13.374;2023-04-29T02:45:40;17.53;;;15.50;;
2055;SDS011;1033;52.560;13.374;2023-04-29T02:48:10;17.93;;;15.13;;
2055;SDS011;1033;52.560;13.374;2023-04-29T02:50:40;21.10;;;14.27;;
2055;SDS011;1033;52.560;13.374;2023-04-29T02:53:09;18.13;;;15.80;;
2055;SDS011;1033;52.560;13.374;2023-04-29T02:55:38;19.57;;;16.03;;
2055;SDS011;1033;52.560;13.374;2023-04-29T02:58:08;17.97;;;15.10;;
2055;SDS011;1033;52.560;13.374;2023-04-29T03:00:39;16.63;;;14.90;;
2055;SDS011;1033;52.560;13.374;2023-04-29T03:03:08;21.63;;;16.67;;
2055;SDS011;1033;52.560;13.374;2023-04-29T03:05:38;19.20;;;16.53;;
2055;SDS011;1033;52.560;13.374;2023-04-29T03:08:07;17.67;;;15.80;;
2055;SDS011;1033;52.560;13.374;2023-04-29T03:10:36;18.90;;;16.93;;
2055;SDS011;1033;52.560;13.374;2023-04-29T03:13:07;18.70;;;16.80;;
2055;SDS011;1033;52.560;13.374;2023-04-29T03:15:38;23.17;;;17.87;;
2055;SDS011;1033;52.560;13.374;2023-04-29T03:18:07;18.47;;;16.67;;
2055;SDS011;1033;52.560;13.374;2023-04-29T03:20:36;17.90;;;15.90;;
2055;SDS011;1033;52.560;13.374;2023-04-29T03:23:06;17.30;;;15.10;;
2055;SDS011;1033;52.560;13.374;2023-04-29T03:25:35;20.13;;;16.23;;
2055;SDS011;1033;52.560;13.374;2023-04-29T03:28:05;27.33;;;16.70;;
2055;SDS011;1033;52.560;13.374;2023-04-29T03:30:35;18.53;;;16.70;;
2055;SDS011;1033;52.560;13.374;2023-04-29T03:33:06;28.07;;;21.50;;
2055;SDS011;1033;52.560;13.374;2023-04-29T03:35:35;23.07;;;17.10;;
2055;SDS011;1033;52.560;13.374;2023-04-29T03:38:27;26.10;;;22.43;;
2055;SDS011;1033;52.560;13.374;2023-04-29T03:40:56;27.30;;;23.43;;
2055;SDS011;1033;52.560;13.374;2023-04-29T03:43:25;23.50;;;19.90;;
2055;SDS011;1033;52.560;13.374;2023-04-29T03:45:56;22.10;;;19.73;;
2055;SDS011;1033;52.560;13.374;2023-04-29T03:48:25;20.97;;;18.50;;
2055;SDS011;1033;52.560;13.374;2023-04-29T03:50:54;25.60;;;20.50;;
2055;SDS011;1033;52.560;13.374;2023-04-29T03:53:24;25.13;;;19.20;;
2055;SDS011;1033;52.560;13.374;2023-04-29T03:55:53;29.07;;;20.97;;
2055;SDS011;1033;52.560;13.374;2023-04-29T03:58:22;28.90;;;22.60;;
2055;SDS011;1033;52.560;13.374;2023-04-29T04:00:52;27.93;;;20.70;;
2055;SDS011;1033;52.560;13.374;2023-04-29T04:03:34;26.30;;;22.13;;
2055;SDS011;1033;52.560;13.374;2023-04-29T04:06:04;25.17;;;20.50;;
2055;SDS011;1033;52.560;13.374;2023-04-29T04:08:33;26.73;;;21.83;;
2055;SDS011;1033;52.560;13.374;2023-04-29T04:11:08;34.50;;;21.10;;
2055;SDS011;1033;52.560;13.374;2023-04-29T04:13:43;24.70;;;22.00;;
2055;SDS011;1033;52.560;13.374;2023-04-29T04:16:14;36.97;;;21.20;;
2055;SDS011;1033;52.560;13.374;2023-04-29T04:18:43;29.00;;;21.27;;
2055;SDS011;1033;52.560;13.374;2023-04-29T04:21:12;32.67;;;24.00;;
2055;SDS011;1033;52.560;13.374;2023-04-29T04:23:46;28.70;;;22.40;;
2055;SDS011;1033;52.560;13.374;2023-04-29T04:26:19;27.37;;;22.17;;
2055;SDS011;1033;52.560;13.374;2023-04-29T04:29:01;34.40;;;24.30;;
2055;SDS011;1033;52.560;13.374;2023-04-29T04:31:49;29.67;;;24.27;;
2055;SDS011;1033;52.560;13.374;2023-04-29T04:34:18;29.33;;;25.53;;
2055;SDS011;1033;52.560;13.374;2023-04-29T04:36:50;27.83;;;24.50;;
2055;SDS011;1033;52.560;13.374;2023-04-29T04:39:20;27.30;;;22.67;;
2055;SDS011;1033;52.560;13.374;2023-04-29T04:41:51;26.80;;;21.57;;
2055;SDS011;1033;52.560;13.374;2023-04-29T04:44:21;28.17;;;21.87;;
2055;SDS011;1033;52.560;13.374;2023-04-29T04:47:02;31.53;;;23.80;;
2055;SDS011;1033;52.560;13.374;2023-04-29T04:49:41;27.23;;;23.30;;
2055;SDS011;1033;52.560;13.374;2023-04-29T04:52:11;29.67;;;23.00;;
2055;SDS011;1033;52.560;13.374;2023-04-29T04:54:44;30.20;;;24.40;;
2055;SDS011;1033;52.560;13.374;2023-04-29T04:57:20;32.17;;;23.30;;
2055;SDS011;1033;52.560;13.374;2023-04-29T04:59:50;30.33;;;23.67;;
2055;SDS011;1033;52.560;13.374;2023-04-29T05:02:21;35.23;;;26.67;;
2055;SDS011;1033;52.560;13.374;2023-04-29T05:04:50;34.53;;;28.47;;
2055;SDS011;1033;52.560;13.374;2023-04-29T05:07:24;27.00;;;23.30;;
2055;SDS011;1033;52.560;13.374;2023-04-29T05:09:59;33.60;;;25.50;;
2055;SDS011;1033;52.560;13.374;2023-04-29T05:12:30;35.93;;;25.70;;
2055;SDS011;1033;52.560;13.374;2023-04-29T05:15:02;31.17;;;25.23;;
2055;SDS011;1033;52.560;13.374;2023-04-29T05:17:34;32.40;;;24.60;;
2055;SDS011;1033;52.560;13.374;2023-04-29T05:20:05;34.00;;;24.97;;
2055;SDS011;1033;52.560;13.374;2023-04-29T05:22:35;35.00;;;28.00;;
2055;SDS011;1033;52.560;13.374;2023-04-29T05:25:04;37.10;;;24.83;;
2055;SDS011;1033;52.560;13.374;2023-04-29T05:27:35;33.17;;;26.20;;
2055;SDS011;1033;52.560;13.374;2023-04-29T05:30:09;25.97;;;22.83;;
2055;SDS011;1033;52.560;13.374;2023-04-29T05:32:39;34.87;;;27.00;;
2055;SDS011;1033;52.560;13.374;2023-04-29T05:35:12;30.33;;;23.10;;
2055;SDS011;1033;52.560;13.374;2023-04-29T05:38:05;28.23;;;23.00;;
2055;SDS011;1033;52.560;13.374;2023-04-29T05:40:38;26.83;;;21.57;;
2055;SDS011;1033;52.560;13.374;2023-04-29T05:43:25;34.63;;;22.43;;
2055;SDS011;1033;52.560;13.374;2023-04-29T05:45:56;28.87;;;22.87;;
2055;SDS011;1033;52.560;13.374;2023-04-29T05:48:26;27.40;;;23.77;;
2055;SDS011;1033;52.560;13.374;2023-04-29T05:50:56;27.47;;;21.97;;
2055;SDS011;1033;52.560;13.374;2023-04-29T05:53:25;29.63;;;22.50;;
2055;SDS011;1033;52.560;13.374;2023-04-29T05:55:59;31.00;;;22.70;;
2055;SDS011;1033;52.560;13.374;2023-04-29T05:59:36;30.37;;;20.90;;
2055;SDS011;1033;52.560;13.374;2023-04-29T06:02:07;28.33;;;22.67;;
2055;SDS011;1033;52.560;13.374;2023-04-29T06:04:41;25.10;;;20.13;;
2055;SDS011;1033;52.560;13.374;2023-04-29T06:07:38;31.63;;;21.80;;
2055;SDS011;1033;52.560;13.374;2023-04-29T06:10:28;27.17;;;21.50;;
2055;SDS011;1033;52.560;13.374;2023-04-29T06:12:59;31.27;;;22.57;;
2055;SDS011;1033;52.560;13.374;2023-04-29T06:15:28;31.57;;;22.70;;
2055;SDS011;1033;52.560;13.374;2023-04-29T06:17:57;32.17;;;21.40;;
2055;SDS011;1033;52.560;13.374;2023-04-29T06:20:28;28.03;;;19.97;;
2055;SDS011;1033;52.560;13.374;2023-04-29T06:22:57;29.47;;;21.23;;
2055;SDS011;1033;52.560;13.374;2023-04-29T06:25:27;29.60;;;21.80;;
2055;SDS011;1033;52.560;13.374;2023-04-29T06:28:00;28.80;;;20.93;;
2055;SDS011;1033;52.560;13.374;2023-04-29T06:30:30;29.90;;;21.97;;
2055;SDS011;1033;52.560;13.374;2023-04-29T06:33:00;31.00;;;20.80;;
2055;SDS011;1033;52.560;13.374;2023-04-29T06:35:30;26.87;;;20.47;;
2055;SDS011;1033;52.560;13.374;2023-04-29T06:38:10;28.10;;;20.10;;
2055;SDS011;1033;52.560;13.374;2023-04-29T06:40:53;26.93;;;20.63;;
2055;SDS011;1033;52.560;13.374;2023-04-29T06:43:47;24.70;;;20.10;;
2055;SDS011;1033;52.560;13.374;2023-04-29T06:46:36;25.33;;;18.90;;
2055;SDS011;1033;52.560;13.374;2023-04-29T06:49:09;24.20;;;17.00;;
2055;SDS011;1033;52.560;13.374;2023-04-29T06:51:40;22.63;;;16.93;;
2055;SDS011;1033;52.560;13.374;2023-04-29T06:54:10;23.20;;;19.37;;
2055;SDS011;1033;52.560;13.374;2023-04-29T06:56:40;28.60;;;20.80;;
2055;SDS011;1033;52.560;13.374;2023-04-29T06:59:09;28.97;;;20.40;;
2055;SDS011;1033;52.560;13.374;2023-04-29T07:01:44;27.33;;;16.47;;
2055;SDS011;1033;52.560;13.374;2023-04-29T07:04:18;23.97;;;18.83;;
2055;SDS011;1033;52.560;13.374;2023-04-29T07:07:05;29.20;;;17.57;;
2055;SDS011;1033;52.560;13.374;2023-04-29T07:10:02;27.90;;;17.50;;
2055;SDS011;1033;52.560;13.374;2023-04-29T07:12:31;31.20;;;21.00;;
2055;SDS011;1033;52.560;13.374;2023-04-29T07:15:01;29.37;;;20.63;;
2055;SDS011;1033;52.560;13.374;2023-04-29T07:17:30;28.83;;;20.80;;
2055;SDS011;1033;52.560;13.374;2023-04-29T07:20:03;32.00;;;20.47;;
2055;SDS011;1033;52.560;13.374;2023-04-29T07:22:35;28.80;;;19.67;;
2055;SDS011;1033;52.560;13.374;2023-04-29T07:25:09;26.30;;;20.53;;
2055;SDS011;1033;52.560;13.374;2023-04-29T07:27:40;29.70;;;21.60;;
2055;SDS011;1033;52.560;13.374;2023-04-29T07:30:09;32.37;;;21.50;;
2055;SDS011;1033;52.560;13.374;2023-04-29T07:32:39;30.50;;;19.33;;
2055;SDS011;1033;52.560;13.374;2023-04-29T07:35:09;22.23;;;19.23;;
2055;SDS011;1033;52.560;13.374;2023-04-29T07:37:39;27.73;;;18.83;;
2055;SDS011;1033;52.560;13.374;2023-04-29T07:40:09;26.83;;;19.70;;
2055;SDS011;1033;52.560;13.374;2023-04-29T07:42:39;22.13;;;17.67;;
2055;SDS011;1033;52.560;13.374;2023-04-29T07:45:08;20.60;;;17.40;;
2055;SDS011;1033;52.560;13.374;2023-04-29T07:47:39;18.33;;;16.33;;
2055;SDS011;1033;52.560;13.374;2023-04-29T07:50:09;19.13;;;15.30;;
2055;SDS011;1033;52.560;13.374;2023-04-29T07:52:40;16.87;;;14.40;;
2055;SDS011;1033;52.560;13.374;2023-04-29T07:55:15;17.60;;;15.37;;
2055;SDS011;1033;52.560;13.374;2023-04-29T07:57:44;20.63;;;17.03;;
2055;SDS011;1033;52.560;13.374;2023-04-29T08:00:14;20.20;;;16.00;;
2055;SDS011;1033;52.560;13.374;2023-04-29T08:02:46;15.70;;;13.43;;
2055;SDS011;1033;52.560;13.374;2023-04-29T08:05:18;17.57;;;15.70;;
2055;SDS011;1033;52.560;13.374;2023-04-29T08:07:49;19.07;;;14.93;;
2055;SDS011;1033;52.560;13.374;2023-04-29T08:10:19;16.77;;;14.47;;
2055;SDS011;1033;52.560;13.374;2023-04-29T08:12:48;16.50;;;14.47;;
2055;SDS011;1033;52.560;13.374;2023-04-29T08:15:18;17.73;;;15.43;;
2055;SDS011;1033;52.560;13.374;2023-04-29T08:17:47;16.57;;;14.90;;
2055;SDS011;1033;52.560;13.374;2023-04-29T08:20:18;15.93;;;13.67;;
2055;SDS011;1033;52.560;13.374;2023-04-29T08:22:50;17.17;;;14.70;;
2055;SDS011;1033;52.560;13.374;2023-04-29T08:25:20;21.70;;;16.10;;
2055;SDS011;1033;52.560;13.374;2023-04-29T08:27:49;17.23;;;15.10;;
2055;SDS011;1033;52.560;13.374;2023-04-29T08:30:19;17.57;;;15.00;;
2055;SDS011;1033;52.560;13.374;2023-04-29T08:32:48;14.90;;;12.67;;
2055;SDS011;1033;52.560;13.374;2023-04-29T08:35:18;15.30;;;13.80;;
2055;SDS011;1033;52.560;13.374;2023-04-29T08:37:47;17.27;;;14.60;;
2055;SDS011;1033;52.560;13.374;2023-04-29T08:40:20;19.53;;;16.00;;
2055;SDS011;1033;52.560;13.374;2023-04-29T08:42:52;18.10;;;13.83;;
2055;SDS011;1033;52.560;13.374;2023-04-29T08:45:23;20.30;;;17.00;;
2055;SDS011;1033;52.560;13.374;2023-04-29T08:47:56;20.20;;;15.57;;
2055;SDS011;1033;52.560;13.374;2023-04-29T08:50:26;20.17;;;15.30;;
2055;SDS011;1033;52.560;13.374;2023-04-29T08:52:58;23.30;;;17.47;;
2055;SDS011;1033;52.560;13.374;2023-04-29T08:55:33;24.73;;;17.60;;
2055;SDS011;1033;52.560;13.374;2023-04-29T08:58:09;28.20;;;19.07;;
2055;SDS011;1033;52.560;13.374;2023-04-29T09:00:42;26.53;;;18.17;;
2055;SDS011;1033;52.560;13.374;2023-04-29T09:03:13;24.90;;;20.63;;
2055;SDS011;1033;52.560;13.374;2023-04-29T09:05:52;24.10;;;18.43;;
2055;SDS011;1033;52.560;13.374;2023-04-29T09:08:24;27.97;;;20.47;;
2055;SDS011;1033;52.560;13.374;2023-04-29T09:10:53;33.07;;;21.30;;
2055;SDS011;1033;52.560;13.374;2023-04-29T09:13:25;35.23;;;21.77;;
2055;SDS011;1033;52.560;13.374;2023-04-29T09:15:55;34.75;;;21.17;;
2055;SDS011;1033;52.560;13.374;2023-04-29T09:18:41;31.27;;;22.97;;
2055;SDS011;1033;52.560;13.374;2023-04-29T09:21:15;34.53;;;24.63;;
2055;SDS011;1033;52.560;13.374;2023-04-29T09:23:51;34.17;;;24.57;;
2055;SDS011;1033;52.560;13.374;2023-04-29T09:26:26;38.67;;;26.50;;
2055;SDS011;1033;52.560;13.374;2023-04-29T09:29:07;34.00;;;23.60;;
2055;SDS011;1033;52.560;13.374;2023-04-29T09:31:44;36.53;;;23.83;;
2055;SDS011;1033;52.560;13.374;2023-04-29T09:34:29;36.93;;;26.87;;
2055;SDS011;1033;52.560;13.374;2023-04-29T09:37:01;40.70;;;25.17;;
2055;SDS011;1033;52.560;13.374;2023-04-29T09:39:38;34.43;;;24.23;;
2055;SDS011;1033;52.560;13.374;2023-04-29T09:42:07;50.53;;;31.53;;
2055;SDS011;1033;52.560;13.374;2023-04-29T09:44:39;42.97;;;30.73;;
2055;SDS011;1033;52.560;13.374;2023-04-29T09:47:10;53.37;;;32.37;;
2055;SDS011;1033;52.560;13.374;2023-04-29T09:49:41;41.37;;;30.63;;
2055;SDS011;1033;52.560;13.374;2023-04-29T09:52:13;51.37;;;32.77;;
2055;SDS011;1033;52.560;13.374;2023-04-29T09:54:45;49.72;;;33.45;;
2055;SDS011;1033;52.560;13.374;2023-04-29T09:57:14;46.83;;;31.87;;
2055;SDS011;1033;52.560;13.374;2023-04-29T09:59:51;49.60;;;34.33;;
2055;SDS011;1033;52.560;13.374;2023-04-29T10:02:21;51.97;;;36.47;;
2055;SDS011;1033;52.560;13.374;2023-04-29T10:04:52;49.40;;;36.90;;
2055;SDS011;1033;52.560;13.374;2023-04-29T10:07:25;55.63;;;36.60;;
2055;SDS011;1033;52.560;13.374;2023-04-29T10:09:58;43.83;;;33.07;;
2055;SDS011;1033;52.560;13.374;2023-04-29T10:12:34;48.57;;;32.70;;
2055;SDS011;1033;52.560;13.374;2023-04-29T10:15:12;60.60;;;45.20;;
2055;SDS011;1033;52.560;13.374;2023-04-29T10:17:53;50.53;;;33.57;;
2055;SDS011;1033;52.560;13.374;2023-04-29T10:20:48;48.70;;;34.63;;
2055;SDS011;1033;52.560;13.374;2023-04-29T10:23:20;48.40;;;32.60;;
2055;SDS011;1033;52.560;13.374;2023-04-29T10:25:53;48.17;;;32.37;;
2055;SDS011;1033;52.560;13.374;2023-04-29T10:28:24;41.30;;;28.70;;
2055;SDS011;1033;52.560;13.374;2023-04-29T10:30:55;40.53;;;28.13;;
2055;SDS011;1033;52.560;13.374;2023-04-29T10:33:29;45.00;;;33.20;;
2055;SDS011;1033;52.560;13.374;2023-04-29T10:36:03;38.90;;;31.33;;
2055;SDS011;1033;52.560;13.374;2023-04-29T10:39:08;35.90;;;28.70;;
2055;SDS011;1033;52.560;13.374;2023-04-29T10:41:47;39.93;;;31.07;;
2055;SDS011;1033;52.560;13.374;2023-04-29T10:48:12;34.33;;;25.90;;
2055;SDS011;1033;52.560;13.374;2023-04-29T10:53:35;44.03;;;27.73;;
2055;SDS011;1033;52.560;13.374;2023-04-29T10:56:34;34.50;;;28.97;;
2055;SDS011;1033;52.560;13.374;2023-04-29T10:59:11;31.50;;;23.60;;
2055;SDS011;1033;52.560;13.374;2023-04-29T11:01:42;27.53;;;24.47;;
2055;SDS011;1033;52.560;13.374;2023-04-29T11:04:13;30.10;;;24.43;;
2055;SDS011;1033;52.560;13.374;2023-04-29T11:06:44;29.13;;;25.20;;
2055;SDS011;1033;52.560;13.374;2023-04-29T11:12:18;28.87;;;23.90;;
2055;SDS011;1033;52.560;13.374;2023-04-29T11:14:50;28.43;;;24.80;;
2055;SDS011;1033;52.560;13.374;2023-04-29T11:17:21;28.03;;;23.93;;
2055;SDS011;1033;52.560;13.374;2023-04-29T11:19:53;26.10;;;23.33;;
2055;SDS011;1033;52.560;13.374;2023-04-29T11:22:24;27.60;;;24.73;;
2055;SDS011;1033;52.560;13.374;2023-04-29T11:24:54;24.53;;;20.67;;
2055;SDS011;1033;52.560;13.374;2023-04-29T11:27:26;23.03;;;20.63;;
2055;SDS011;1033;52.560;13.374;2023-04-29T11:30:00;21.93;;;19.63;;
2055;SDS011;1033;52.560;13.374;2023-04-29T11:32:32;21.00;;;18.87;;
2055;SDS011;1033;52.560;13.374;2023-04-29T11:35:06;23.30;;;18.90;;
2055;SDS011;1033;52.560;13.374;2023-04-29T11:37:38;21.20;;;18.37;;
2055;SDS011;1033;52.560;13.374;2023-04-29T11:40:08;25.30;;;19.43;;
2055;SDS011;1033;52.560;13.374;2023-04-29T11:42:42;19.10;;;17.10;;
2055;SDS011;1033;52.560;13.374;2023-04-29T11:45:15;20.80;;;17.40;;
2055;SDS011;1033;52.560;13.374;2023-04-29T11:47:45;19.73;;;17.67;;
2055;SDS011;1033;52.560;13.374;2023-04-29T11:50:17;18.60;;;16.10;;
2055;SDS011;1033;52.560;13.374;2023-04-29T11:52:49;20.33;;;18.13;;
2055;SDS011;1033;52.560;13.374;2023-04-29T11:55:18;18.10;;;16.30;;
2055;SDS011;1033;52.560;13.374;2023-04-29T11:57:47;21.90;;;17.17;;
2055;SDS011;1033;52.560;13.374;2023-04-29T12:00:19;23.97;;;16.77;;
2055;SDS011;1033;52.560;13.374;2023-04-29T12:02:49;22.17;;;17.57;;
2055;SDS011;1033;52.560;13.374;2023-04-29T12:05:19;19.60;;;17.23;;
2055;SDS011;1033;52.560;13.374;2023-04-29T12:07:53;20.60;;;16.60;;
2055;SDS011;1033;52.560;13.374;2023-04-29T12:10:22;18.73;;;16.77;;
2055;SDS011;1033;52.560;13.374;2023-04-29T12:12:51;19.13;;;16.30;;
2055;SDS011;1033;52.560;13.374;2023-04-29T12:15:22;22.10;;;15.60;;
2055;SDS011;1033;52.560;13.374;2023-04-29T12:17:52;21.57;;;15.60;;
2055;SDS011;1033;52.560;13.374;2023-04-29T12:20:23;18.70;;;16.90;;
2055;SDS011;1033;52.560;13.374;2023-04-29T12:22:54;26.53;;;15.87;;
2055;SDS011;1033;52.560;13.374;2023-04-29T12:25:25;21.07;;;16.00;;
2055;SDS011;1033;52.560;13.374;2023-04-29T12:27:58;16.10;;;14.40;;
2055;SDS011;1033;52.560;13.374;2023-04-29T12:30:34;17.03;;;14.50;;
2055;SDS011;1033;52.560;13.374;2023-04-29T12:33:05;22.07;;;14.23;;
2055;SDS011;1033;52.560;13.374;2023-04-29T12:35:36;36.70;;;28.97;;
2055;SDS011;1033;52.560;13.374;2023-04-29T12:38:06;37.67;;;32.97;;
2055;SDS011;1033;52.560;13.374;2023-04-29T12:40:36;16.30;;;11.43;;
2055;SDS011;1033;52.560;13.374;2023-04-29T12:43:06;14.17;;;12.53;;
2055;SDS011;1033;52.560;13.374;2023-04-29T12:45:38;16.10;;;13.53;;
2055;SDS011;1033;52.560;13.374;2023-04-29T12:48:08;16.47;;;13.10;;
2055;SDS011;1033;52.560;13.374;2023-04-29T12:50:54;12.70;;;10.67;;
2055;SDS011;1033;52.560;13.374;2023-04-29T12:53:25;14.90;;;10.77;;
2055;SDS011;1033;52.560;13.374;2023-04-29T12:55:56;11.57;;;9.57;;
2055;SDS011;1033;52.560;13.374;2023-04-29T12:58:27;11.50;;;10.30;;
2055;SDS011;1033;52.560;13.374;2023-04-29T13:00:58;11.57;;;9.47;;
2055;SDS011;1033;52.560;13.374;2023-04-29T13:03:27;10.40;;;9.30;;
2055;SDS011;1033;52.560;13.374;2023-04-29T13:05:57;9.23;;;7.40;;
2055;SDS011;1033;52.560;13.374;2023-04-29T13:08:26;9.67;;;8.67;;
2055;SDS011;1033;52.560;13.374;2023-04-29T13:10:56;7.67;;;6.93;;
2055;SDS011;1033;52.560;13.374;2023-04-29T13:13:25;9.50;;;8.20;;
2055;SDS011;1033;52.560;13.374;2023-04-29T13:15:54;9.83;;;7.63;;
2055;SDS011;1033;52.560;13.374;2023-04-29T13:18:25;8.23;;;7.43;;
2055;SDS011;1033;52.560;13.374;2023-04-29T13:20:56;9.57;;;7.87;;
2055;SDS011;1033;52.560;13.374;2023-04-29T13:23:28;7.37;;;6.63;;
2055;SDS011;1033;52.560;13.374;2023-04-29T13:25:57;9.50;;;8.27;;
2055;SDS011;1033;52.560;13.374;2023-04-29T13:28:26;8.97;;;7.70;;
2055;SDS011;1033;52.560;13.374;2023-04-29T13:30:56;14.27;;;7.87;;
2055;SDS011;1033;52.560;13.374;2023-04-29T13:33:26;11.30;;;8.90;;
2055;SDS011;1033;52.560;13.374;2023-04-29T13:35:55;8.97;;;7.97;;
2055;SDS011;1033;52.560;13.374;2023-04-29T13:38:24;9.73;;;7.33;;
2055;SDS011;1033;52.560;13.374;2023-04-29T13:40:54;11.20;;;9.60;;
2055;SDS011;1033;52.560;13.374;2023-04-29T13:43:23;8.60;;;7.60;;
2055;SDS011;1033;52.560;13.374;2023-04-29T13:46:04;11.57;;;10.17;;
2055;SDS011;1033;52.560;13.374;2023-04-29T13:48:35;24.93;;;14.97;;
2055;SDS011;1033;52.560;13.374;2023-04-29T13:51:07;17.73;;;12.60;;
2055;SDS011;1033;52.560;13.374;2023-04-29T13:53:39;10.77;;;8.43;;
2055;SDS011;1033;52.560;13.374;2023-04-29T13:56:11;12.33;;;10.73;;
2055;SDS011;1033;52.560;13.374;2023-04-29T13:59:00;13.37;;;10.67;;
2055;SDS011;1033;52.560;13.374;2023-04-29T14:01:49;14.53;;;11.47;;
2055;SDS011;1033;52.560;13.374;2023-04-29T14:04:22;12.40;;;10.67;;
2055;SDS011;1033;52.560;13.374;2023-04-29T14:06:52;12.77;;;10.83;;
2055;SDS011;1033;52.560;13.374;2023-04-29T14:09:22;13.67;;;11.37;;
2055;SDS011;1033;52.560;13.374;2023-04-29T14:11:51;19.43;;;12.03;;
2055;SDS011;1033;52.560;13.374;2023-04-29T14:14:21;12.60;;;11.03;;
2055;SDS011;1033;52.560;13.374;2023-04-29T14:16:50;15.07;;;12.17;;
2055;SDS011;1033;52.560;13.374;2023-04-29T14:19:19;13.97;;;11.00;;
2055;SDS011;1033;52.560;13.374;2023-04-29T14:21:50;11.20;;;9.60;;
2055;SDS011;1033;52.560;13.374;2023-04-29T14:24:19;11.47;;;10.03;;
2055;SDS011;1033;52.560;13.374;2023-04-29T14:26:49;15.57;;;10.50;;
2055;SDS011;1033;52.560;13.374;2023-04-29T14:29:19;11.70;;;10.57;;
2055;SDS011;1033;52.560;13.374;2023-04-29T14:31:48;19.80;;;12.63;;
2055;SDS011;1033;52.560;13.374;2023-04-29T14:34:17;31.93;;;18.30;;
2055;SDS011;1033;52.560;13.374;2023-04-29T14:36:46;10.63;;;9.40;;
2055;SDS011;1033;52.560;13.374;2023-04-29T14:39:17;12.97;;;10.50;;
2055;SDS011;1033;52.560;13.374;2023-04-29T14:41:46;11.37;;;8.57;;
2055;SDS011;1033;52.560;13.374;2023-04-29T14:44:15;9.27;;;8.37;;
2055;SDS011;1033;52.560;13.374;2023-04-29T14:46:44;20.23;;;13.97;;
2055;SDS011;1033;52.560;13.374;2023-04-29T14:49:14;16.90;;;12.93;;
2055;SDS011;1033;52.560;13.374;2023-04-29T14:51:43;13.50;;;11.60;;
2055;SDS011;1033;52.560;13.374;2023-04-29T14:54:12;9.20;;;8.00;;
2055;SDS011;1033;52.560;13.374;2023-04-29T14:56:43;10.13;;;9.13;;
2055;SDS011;1033;52.560;13.374;2023-04-29T14:59:12;9.23;;;7.90;;
2055;SDS011;1033;52.560;13.374;2023-04-29T15:01:42;8.33;;;7.10;;
2055;SDS011;1033;52.560;13.374;2023-04-29T15:04:11;9.70;;;8.30;;
2055;SDS011;1033;52.560;13.374;2023-04-29T15:06:41;9.27;;;6.87;;
2055;SDS011;1033;52.560;13.374;2023-04-29T15:09:10;9.03;;;8.13;;
2055;SDS011;1033;52.560;13.374;2023-04-29T15:11:39;12.17;;;7.67;;
2055;SDS011;1033;52.560;13.374;2023-04-29T15:14:09;8.63;;;6.97;;
2055;SDS011;1033;52.560;13.374;2023-04-29T15:16:38;9.37;;;7.80;;
2055;SDS011;1033;52.560;13.374;2023-04-29T15:19:08;10.23;;;8.63;;
2055;SDS011;1033;52.560;13.374;2023-04-29T15:21:37;9.03;;;7.43;;